Terminal Aerodrome Forecast
Issued by NWS Twin Cities, MN

Home | Current Version | Previous Version | Text Only | Print | Product List | Glossary Off
Versions: 1 2 3 4 5 6 7 8 9 10 11 12 13

935
FTUS43 KMPX 161220 AAA
TAFEAU
TAF AMD
KEAU 161220Z 1612/1712 15007KT P6SM SCT250
     FM161700 14011KT P6SM BKN200
     FM170000 13005KT P6SM SCT250=

USA.gov is the U.S. government's official web portal to all federal, state and local government web resources and services.